Time;durP1;ratioP1;P1;durP2;ratioP2;P2;SDS_P1;SDS_P2;PMS_P1;PMS_P2;Temp;Humidity;BMP_temperature;BMP_pressure;BME280_temperature;BME280_humidity;BME280_pressure;Samples;Min_cycle;Max_cycle;Signal;HPM_P1;HPM_P2
2023/04/14 00:00:37;;;;;;;2.30;2.10;;;8.20;99.90;;;;;;5016690;28;20229;-69
2023/04/14 00:03:02;;;;;;;2.07;1.87;;;8.20;99.90;;;;;;5026117;28;20207;-69
2023/04/14 00:05:32;;;;;;;1.70;1.60;;;8.10;99.90;;;;;;5028188;28;20537;-69
2023/04/14 00:07:58;;;;;;;3.03;2.60;;;8.00;99.90;;;;;;5027043;28;20190;-69
2023/04/14 00:10:24;;;;;;;2.83;2.23;;;7.90;99.90;;;;;;5029618;28;20244;-68
2023/04/14 00:12:50;;;;;;;2.17;2.07;;;8.00;99.90;;;;;;5010757;28;20187;-69
2023/04/14 00:15:16;;;;;;;2.60;2.40;;;8.20;99.90;;;;;;5021828;28;20184;-68
2023/04/14 00:17:42;;;;;;;5.13;2.40;;;8.20;99.90;;;;;;5005459;28;20584;-71
2023/04/14 00:20:08;;;;;;;10.80;2.83;;;8.40;99.90;;;;;;5032028;28;20594;-68
2023/04/14 00:22:34;;;;;;;4.90;2.00;;;8.30;99.90;;;;;;5012042;28;20199;-69
2023/04/14 00:25:00;;;;;;;4.10;2.13;;;8.20;99.90;;;;;;5005536;28;20203;-69
2023/04/14 00:27:27;;;;;;;7.73;3.00;;;8.30;99.90;;;;;;5009198;28;20207;-68
2023/04/14 00:29:52;;;;;;;3.23;2.40;;;8.20;99.90;;;;;;5025885;28;20207;-69
2023/04/14 00:32:18;;;;;;;3.87;2.63;;;8.00;99.90;;;;;;5018238;28;20282;-69
2023/04/14 00:34:44;;;;;;;7.83;2.30;;;7.90;99.90;;;;;;5026217;28;20210;-70
2023/04/14 00:37:10;;;;;;;4.10;2.50;;;7.80;99.90;;;;;;5028713;28;20222;-68
2023/04/14 00:39:35;;;;;;;5.13;2.80;;;7.80;99.90;;;;;;5014007;28;20269;-69
2023/04/14 00:42:01;;;;;;;3.20;2.60;;;7.90;99.90;;;;;;4996226;28;20215;-68
2023/04/14 00:44:27;;;;;;;3.97;3.60;;;8.00;99.90;;;;;;5017499;28;20183;-69
2023/04/14 00:46:54;;;;;;;2.70;2.43;;;8.10;99.90;;;;;;5028564;28;20190;-70
2023/04/14 00:49:20;;;;;;;5.03;2.70;;;8.00;99.90;;;;;;5006036;28;20279;-67
2023/04/14 00:51:46;;;;;;;2.93;2.47;;;7.90;99.90;;;;;;5004036;28;20196;-69
2023/04/14 00:54:14;;;;;;;4.37;2.40;;;7.80;99.90;;;;;;5019077;28;20190;-68
2023/04/14 00:56:40;;;;;;;4.30;2.47;;;7.80;99.90;;;;;;5010900;28;20184;-69
2023/04/14 00:59:06;;;;;;;2.67;2.47;;;7.80;99.90;;;;;;5037107;28;20195;-69
2023/04/14 01:01:36;;;;;;;3.63;2.87;;;7.80;99.90;;;;;;5045735;28;20207;-70
2023/04/14 01:04:02;;;;;;;3.90;3.53;;;7.90;99.90;;;;;;5019511;28;20196;-70
2023/04/14 01:06:28;;;;;;;3.20;2.30;;;7.70;99.90;;;;;;5018032;28;20203;-71
2023/04/14 01:08:55;;;;;;;2.63;2.47;;;7.60;99.90;;;;;;5024152;28;20198;-69
2023/04/14 01:11:50;;;;;;;3.67;2.50;;;7.60;99.90;;;;;;5006043;28;20230;-70
2023/04/14 01:14:46;;;;;;;4.77;2.90;;;7.60;99.90;;;;;;5003744;28;20191;-69
2023/04/14 01:17:11;;;;;;;3.20;2.87;;;7.60;99.90;;;;;;5024655;28;20198;-70
2023/04/14 01:19:53;;;;;;;4.43;2.60;;;7.90;99.90;;;;;;5023086;28;20188;-69
2023/04/14 01:22:20;;;;;;;2.47;2.27;;;8.00;99.90;;;;;;5012750;28;20695;-69
2023/04/14 01:24:55;;;;;;;3.73;2.43;;;7.90;99.90;;;;;;5011862;28;20195;-69
2023/04/14 01:27:53;;;;;;;2.63;2.40;;;8.00;99.90;;;;;;5018566;28;20278;-70
2023/04/14 01:30:56;;;;;;;2.83;2.40;;;7.70;99.90;;;;;;5006351;28;20632;-69
2023/04/14 01:33:25;;;;;;;5.17;2.23;;;7.60;99.90;;;;;;5010068;28;20187;-69
2023/04/14 01:35:57;;;;;;;3.67;2.57;;;7.60;99.90;;;;;;5022513;28;20269;-70
2023/04/14 01:38:27;;;;;;;2.20;2.00;;;7.50;99.90;;;;;;5020209;28;20210;-68
2023/04/14 01:40:58;;;;;;;3.40;2.47;;;7.30;99.90;;;;;;5012680;28;20207;-70
2023/04/14 01:43:29;;;;;;;3.93;3.50;;;7.30;99.90;;;;;;5020534;28;20210;-69
2023/04/14 01:45:59;;;;;;;5.00;3.07;;;7.20;99.90;;;;;;5011501;28;20195;-69
2023/04/14 01:48:27;;;;;;;4.23;2.27;;;7.10;99.90;;;;;;5022169;28;20188;-69
2023/04/14 01:50:54;;;;;;;2.40;2.20;;;7.20;99.90;;;;;;4995797;28;20241;-70
2023/04/14 01:53:22;;;;;;;2.23;2.13;;;7.20;99.90;;;;;;5027952;28;20186;-71
2023/04/14 01:55:50;;;;;;;2.50;2.30;;;7.20;99.90;;;;;;5004003;28;20718;-69
2023/04/14 01:58:17;;;;;;;5.30;2.13;;;7.20;99.90;;;;;;5004427;28;20194;-69
2023/04/14 02:00:44;;;;;;;3.60;2.70;;;7.10;99.90;;;;;;5021896;28;20182;-68
2023/04/14 02:03:11;;;;;;;3.40;2.10;;;7.10;99.90;;;;;;5014648;28;20206;-69
2023/04/14 02:05:38;;;;;;;3.10;2.10;;;7.10;99.90;;;;;;5014862;28;20549;-68
2023/04/14 02:08:11;;;;;;;2.57;2.17;;;7.00;99.90;;;;;;5014179;28;20625;-70
2023/04/14 02:10:42;;;;;;;2.97;1.93;;;7.00;99.90;;;;;;5007410;28;20286;-69
2023/04/14 02:13:10;;;;;;;8.53;2.43;;;7.00;99.90;;;;;;5011857;28;20671;-69
2023/04/14 02:15:36;;;;;;;3.83;2.20;;;6.90;99.90;;;;;;5003879;28;20220;-69
2023/04/14 02:18:05;;;;;;;2.40;2.20;;;6.80;99.90;;;;;;5025516;28;20568;-69
2023/04/14 02:20:32;;;;;;;4.67;2.37;;;6.90;99.90;;;;;;5029617;28;20718;-69
2023/04/14 02:22:58;;;;;;;2.20;1.93;;;6.80;99.90;;;;;;5004540;28;20242;-76
2023/04/14 02:25:30;;;;;;;3.33;2.20;;;6.80;99.90;;;;;;5013438;28;20187;-69
2023/04/14 02:27:59;;;;;;;3.87;1.80;;;7.20;99.90;;;;;;5025719;28;20223;-72
2023/04/14 02:30:36;;;;;;;2.80;2.53;;;7.40;99.90;;;;;;5029018;28;20179;-68
2023/04/14 02:33:08;;;;;;;2.60;2.00;;;7.30;99.90;;;;;;5015206;28;20639;-68
2023/04/14 02:36:08;;;;;;;2.53;2.33;;;7.10;99.90;;;;;;5015437;28;20186;-68
2023/04/14 02:38:38;;;;;;;2.50;1.93;;;6.80;99.90;;;;;;5016677;28;20187;-68
2023/04/14 02:41:16;;;;;;;2.90;2.37;;;6.60;99.90;;;;;;5023615;28;20220;-68
2023/04/14 02:43:47;;;;;;;2.87;1.93;;;6.60;99.90;;;;;;5006989;28;20195;-68
2023/04/14 02:46:16;;;;;;;3.07;2.37;;;6.60;99.90;;;;;;5011419;28;20183;-68
2023/04/14 02:48:45;;;;;;;5.97;2.70;;;6.70;99.90;;;;;;5019359;28;20234;-68
2023/04/14 02:51:13;;;;;;;2.23;2.03;;;6.70;99.90;;;;;;5017719;28;20232;-68
2023/04/14 02:53:39;;;;;;;3.87;2.57;;;6.60;99.90;;;;;;5029953;28;20187;-68
2023/04/14 02:56:07;;;;;;;6.27;2.83;;;6.50;99.90;;;;;;5011558;28;20329;-68
2023/04/14 02:58:33;;;;;;;6.37;3.07;;;6.70;99.90;;;;;;5021383;28;20236;-68
2023/04/14 03:01:00;;;;;;;7.80;3.27;;;6.50;99.90;;;;;;5022805;28;20265;-68
2023/04/14 03:03:27;;;;;;;8.00;5.37;;;6.70;99.90;;;;;;5021197;28;20213;-68
2023/04/14 03:05:53;;;;;;;6.80;3.43;;;6.60;99.90;;;;;;5003612;28;20206;-68
2023/04/14 03:08:19;;;;;;;7.53;2.60;;;6.60;99.90;;;;;;5016344;28;20245;-68
2023/04/14 03:10:47;;;;;;;7.63;3.00;;;6.60;99.90;;;;;;5026229;28;20195;-68
2023/04/14 03:13:15;;;;;;;5.17;3.17;;;6.40;99.90;;;;;;5021136;28;20236;-68
2023/04/14 03:15:41;;;;;;;4.97;3.43;;;6.30;99.90;;;;;;5014845;28;20235;-68
2023/04/14 03:18:07;;;;;;;9.00;2.97;;;6.30;99.90;;;;;;5002519;28;20318;-68
2023/04/14 03:20:35;;;;;;;6.60;3.80;;;6.30;99.90;;;;;;5019213;28;20702;-68
2023/04/14 03:23:04;;;;;;;4.60;3.73;;;6.50;99.90;;;;;;5023051;28;20218;-68
2023/04/14 03:25:32;;;;;;;4.27;2.93;;;6.50;99.90;;;;;;5008774;28;20192;-68
2023/04/14 03:28:01;;;;;;;4.10;3.37;;;6.30;99.90;;;;;;4997041;28;20238;-73
2023/04/14 03:30:30;;;;;;;8.47;3.23;;;6.20;99.90;;;;;;5005709;28;20593;-68
2023/04/14 03:33:00;;;;;;;2.87;2.60;;;6.10;99.90;;;;;;5022207;28;20202;-68
2023/04/14 03:35:27;;;;;;;3.83;2.60;;;6.40;99.90;;;;;;5015949;28;20179;-68
2023/04/14 03:37:58;;;;;;;5.97;3.83;;;6.20;99.90;;;;;;4998668;28;20192;-68
2023/04/14 03:40:30;;;;;;;3.07;2.80;;;6.20;99.90;;;;;;5008009;28;20188;-68
2023/04/14 03:42:57;;;;;;;4.10;2.73;;;6.10;99.90;;;;;;5017416;28;20211;-68
2023/04/14 03:45:25;;;;;;;8.37;3.23;;;6.20;99.90;;;;;;5025868;28;20651;-68
2023/04/14 03:47:56;;;;;;;3.87;2.67;;;6.10;99.90;;;;;;5019237;28;20183;-69
2023/04/14 03:50:26;;;;;;;3.33;3.00;;;6.10;99.90;;;;;;5017593;28;20170;-68
2023/04/14 03:52:53;;;;;;;5.43;3.07;;;6.10;99.90;;;;;;4996537;28;20194;-67
2023/04/14 03:55:21;;;;;;;5.30;3.20;;;6.10;99.90;;;;;;5001527;28;20254;-67
2023/04/14 03:57:48;;;;;;;5.00;3.30;;;6.30;99.90;;;;;;5023921;28;20670;-68
2023/04/14 04:00:14;;;;;;;6.70;3.27;;;6.30;99.90;;;;;;5027991;28;20659;-67
2023/04/14 04:02:42;;;;;;;4.30;2.93;;;6.20;99.90;;;;;;5012722;28;20207;-67
2023/04/14 04:05:09;;;;;;;5.03;2.73;;;6.20;99.90;;;;;;5018668;28;20186;-68
2023/04/14 04:07:37;;;;;;;2.73;2.53;;;6.20;99.90;;;;;;5024648;28;20222;-68
2023/04/14 04:10:05;;;;;;;2.77;2.37;;;6.30;99.90;;;;;;5009543;28;20276;-67
2023/04/14 04:12:32;;;;;;;6.43;3.10;;;6.30;99.90;;;;;;4996665;28;20196;-74
2023/04/14 04:14:58;;;;;;;3.23;2.93;;;6.30;99.90;;;;;;5015168;28;20581;-67
2023/04/14 04:17:25;;;;;;;5.77;2.47;;;6.40;99.90;;;;;;5045151;28;20196;-68
2023/04/14 04:19:53;;;;;;;4.53;3.30;;;6.30;99.90;;;;;;5015521;28;21102;-68
2023/04/14 04:22:22;;;;;;;4.70;3.07;;;6.30;99.90;;;;;;5005029;28;20213;-69
2023/04/14 04:24:50;;;;;;;4.30;3.43;;;6.10;99.90;;;;;;5016706;28;20220;-68
2023/04/14 04:27:17;;;;;;;4.87;2.80;;;6.20;99.90;;;;;;5023748;28;20278;-68
2023/04/14 04:29:42;;;;;;;5.13;2.67;;;6.20;99.90;;;;;;5014627;28;20188;-68
2023/04/14 04:32:08;;;;;;;3.50;3.13;;;6.10;99.90;;;;;;5012341;28;20195;-75
2023/04/14 04:34:34;;;;;;;6.87;3.07;;;6.20;99.90;;;;;;5020430;28;20179;-68
2023/04/14 04:37:02;;;;;;;5.83;2.90;;;6.20;99.90;;;;;;5006719;28;20198;-68
2023/04/14 04:39:29;;;;;;;5.57;3.37;;;6.10;99.90;;;;;;5028049;28;20533;-68
2023/04/14 04:42:02;;;;;;;4.17;3.77;;;6.10;99.90;;;;;;5044297;28;20309;-68
2023/04/14 04:44:28;;;;;;;4.47;2.73;;;6.00;99.90;;;;;;5023940;28;20219;-68
2023/04/14 04:46:55;;;;;;;5.17;3.43;;;6.00;99.90;;;;;;5008943;28;20315;-68
2023/04/14 04:49:21;;;;;;;4.33;3.07;;;6.10;99.90;;;;;;5023729;28;20184;-68
2023/04/14 04:51:47;;;;;;;6.27;2.87;;;6.20;99.90;;;;;;5002716;28;20187;-68
2023/04/14 04:54:13;;;;;;;8.27;3.43;;;6.10;99.90;;;;;;5025358;28;20192;-68
2023/04/14 04:56:39;;;;;;;9.40;4.43;;;6.20;99.90;;;;;;5030403;28;20316;-68
2023/04/14 04:59:05;;;;;;;4.23;3.23;;;6.20;99.90;;;;;;5009504;28;20238;-68
2023/04/14 05:01:31;;;;;;;6.87;3.13;;;6.20;99.90;;;;;;5021169;28;20191;-68
2023/04/14 05:03:57;;;;;;;4.07;3.60;;;6.20;99.90;;;;;;5011890;28;20192;-67
2023/04/14 05:06:23;;;;;;;6.20;3.63;;;6.20;99.90;;;;;;5026429;28;20258;-68
2023/04/14 05:08:52;;;;;;;7.13;3.83;;;6.10;99.90;;;;;;5000080;28;20637;-67
2023/04/14 05:11:18;;;;;;;10.13;4.17;;;6.10;99.90;;;;;;5027999;28;20190;-68
2023/04/14 05:13:43;;;;;;;4.13;3.30;;;6.00;99.90;;;;;;5020545;28;20179;-69
2023/04/14 05:16:10;;;;;;;10.40;3.50;;;6.00;99.90;;;;;;5030815;28;20198;-68
2023/04/14 05:18:36;;;;;;;4.00;3.40;;;5.90;99.90;;;;;;5014136;28;20232;-68
2023/04/14 05:21:02;;;;;;;6.73;4.27;;;5.90;99.90;;;;;;5012262;28;20540;-68
2023/04/14 05:23:29;;;;;;;7.27;3.03;;;6.20;99.90;;;;;;5010215;28;20203;-69
2023/04/14 05:25:55;;;;;;;11.33;3.70;;;6.40;99.90;;;;;;5024008;28;20550;-70
2023/04/14 05:28:21;;;;;;;5.03;3.50;;;6.50;99.90;;;;;;5014880;28;20191;-69
2023/04/14 05:30:47;;;;;;;11.73;3.33;;;6.50;99.90;;;;;;5004142;28;20541;-69
2023/04/14 05:33:12;;;;;;;7.17;4.77;;;6.70;99.90;;;;;;5007827;28;20279;-68
2023/04/14 05:35:38;;;;;;;9.33;3.83;;;6.80;99.90;;;;;;5026301;28;20191;-69
2023/04/14 05:38:04;;;;;;;5.07;2.60;;;6.90;99.90;;;;;;5002676;28;20192;-69
2023/04/14 05:40:32;;;;;;;5.57;3.93;;;7.00;99.90;;;;;;5005136;28;20194;-69
2023/04/14 05:42:58;;;;;;;3.90;3.13;;;7.10;99.90;;;;;;5014390;28;20206;-69
2023/04/14 05:45:24;;;;;;;5.00;3.63;;;7.20;99.90;;;;;;5010842;28;20676;-69
2023/04/14 05:47:50;;;;;;;9.23;4.23;;;7.40;99.90;;;;;;5003106;28;20369;-69
2023/04/14 05:50:15;;;;;;;6.80;3.90;;;7.70;99.90;;;;;;5033046;28;20190;-68
2023/04/14 05:52:41;;;;;;;6.13;3.63;;;8.00;99.90;;;;;;5000006;28;20196;-68
2023/04/14 05:55:07;;;;;;;5.97;3.80;;;8.30;99.90;;;;;;5024380;28;20627;-69
2023/04/14 05:57:33;;;;;;;4.20;3.80;;;8.40;99.90;;;;;;5025528;28;20179;-69
2023/04/14 05:59:59;;;;;;;11.20;3.83;;;8.50;99.90;;;;;;5014033;28;20180;-69
2023/04/14 06:02:25;;;;;;;8.37;3.80;;;8.60;99.90;;;;;;5014313;28;20255;-69
2023/04/14 06:04:51;;;;;;;7.53;4.57;;;8.50;99.90;;;;;;5048585;28;20182;-68
2023/04/14 06:07:16;;;;;;;3.27;2.97;;;8.60;99.90;;;;;;5016480;28;20639;-69
2023/04/14 06:09:42;;;;;;;10.73;3.63;;;8.70;99.90;;;;;;5011567;28;20182;-69
2023/04/14 06:12:08;;;;;;;4.23;3.23;;;8.70;99.90;;;;;;5016485;28;20215;-69
2023/04/14 06:14:34;;;;;;;4.80;3.27;;;8.70;99.90;;;;;;5027100;28;20221;-72
2023/04/14 06:16:59;;;;;;;10.17;3.80;;;8.60;99.90;;;;;;5009088;28;20190;-68
2023/04/14 06:19:25;;;;;;;7.23;3.47;;;8.70;99.90;;;;;;5023930;28;20277;-69
2023/04/14 06:21:51;;;;;;;5.03;3.63;;;8.60;99.90;;;;;;5010736;28;20298;-69
2023/04/14 06:24:16;;;;;;;5.40;2.83;;;8.50;99.90;;;;;;5035804;28;20191;-68
2023/04/14 06:26:42;;;;;;;4.37;3.23;;;8.40;99.90;;;;;;5025579;28;20273;-69
2023/04/14 06:29:08;;;;;;;7.27;3.47;;;8.20;99.90;;;;;;5011050;28;20262;-71
2023/04/14 06:31:34;;;;;;;5.03;2.90;;;8.20;99.90;;;;;;5037012;28;20659;-75
2023/04/14 06:34:00;;;;;;;4.40;3.47;;;8.40;99.90;;;;;;5033346;28;20663;-68
2023/04/14 06:36:25;;;;;;;3.63;2.97;;;8.50;99.90;;;;;;5020909;28;20191;-68
2023/04/14 06:38:51;;;;;;;5.07;2.53;;;8.60;99.90;;;;;;5002895;28;20202;-68
2023/04/14 06:41:17;;;;;;;6.67;2.53;;;8.80;99.90;;;;;;5009696;28;20274;-69
2023/04/14 06:43:43;;;;;;;3.97;2.60;;;9.20;99.90;;;;;;5011532;28;20227;-69
2023/04/14 06:46:09;;;;;;;6.27;3.00;;;9.50;99.90;;;;;;5001326;28;20215;-68
2023/04/14 06:48:34;;;;;;;4.33;2.30;;;9.70;99.90;;;;;;5038650;28;20242;-69
2023/04/14 06:51:00;;;;;;;2.50;2.30;;;9.70;99.90;;;;;;5022437;28;20187;-69
2023/04/14 06:53:26;;;;;;;4.30;2.33;;;9.60;99.90;;;;;;5023753;28;20194;-68
2023/04/14 06:55:57;;;;;;;2.90;1.77;;;9.60;99.90;;;;;;5016165;28;20180;-68
2023/04/14 06:58:24;;;;;;;6.83;3.07;;;9.60;99.90;;;;;;5016329;28;20184;-68
2023/04/14 07:01:01;;;;;;;5.07;2.43;;;9.70;99.90;;;;;;5013889;28;20188;-70
2023/04/14 07:03:31;;;;;;;3.90;1.93;;;9.60;99.90;;;;;;5014006;28;20207;-68
2023/04/14 07:06:05;;;;;;;4.03;2.53;;;9.40;99.90;;;;;;4999647;28;20192;-69
2023/04/14 07:08:33;;;;;;;2.90;2.60;;;9.00;99.90;;;;;;5008948;28;20183;-69
2023/04/14 07:11:01;;;;;;;2.77;2.10;;;8.90;99.90;;;;;;5009881;28;20683;-69
2023/04/14 07:13:27;;;;;;;4.40;2.00;;;8.90;99.90;;;;;;4998742;28;20238;-67
2023/04/14 07:15:53;;;;;;;1.80;1.70;;;8.90;99.90;;;;;;4995942;28;20196;-68
2023/04/14 07:18:19;;;;;;;2.93;2.57;;;9.00;99.90;;;;;;5000300;28;20231;-70
2023/04/14 07:20:45;;;;;;;2.87;2.60;;;9.00;99.90;;;;;;5005869;28;20187;-69
2023/04/14 07:23:10;;;;;;;4.43;2.10;;;9.20;99.90;;;;;;5005021;28;20635;-69
2023/04/14 07:25:36;;;;;;;3.37;2.13;;;9.30;99.90;;;;;;5017327;28;20597;-68
2023/04/14 07:28:03;;;;;;;5.63;1.93;;;9.50;99.90;;;;;;5024012;28;20246;-68
2023/04/14 07:30:28;;;;;;;2.57;2.17;;;9.60;99.90;;;;;;5010681;28;20187;-68
2023/04/14 07:32:54;;;;;;;5.07;2.83;;;9.80;99.90;;;;;;4992288;28;20354;-68
2023/04/14 07:35:20;;;;;;;2.10;1.40;;;11.30;99.90;;;;;;5007766;28;20663;-68
2023/04/14 07:37:45;;;;;;;5.53;1.77;;;12.80;99.90;;;;;;5011273;28;20195;-68
2023/04/14 07:40:11;;;;;;;2.88;1.50;;;14.50;99.90;;;;;;5010285;28;20199;-67
2023/04/14 07:42:37;;;;;;;1.15;1.08;;;15.50;99.90;;;;;;5007583;28;20243;-70
2023/04/14 07:45:03;;;;;;;4.15;1.80;;;15.10;99.90;;;;;;5043324;28;20199;-68
2023/04/14 07:47:29;;;;;;;6.47;1.80;;;14.60;99.90;;;;;;5021643;28;20706;-73
2023/04/14 07:49:55;;;;;;;2.63;1.42;;;14.90;99.90;;;;;;5016051;28;20188;-68
2023/04/14 07:52:21;;;;;;;1.63;1.20;;;15.70;99.90;;;;;;4993363;28;20311;-69
2023/04/14 07:54:47;;;;;;;3.20;1.95;;;16.70;99.90;;;;;;5014629;28;20629;-67
2023/04/14 07:57:13;;;;;;;3.53;1.98;;;17.70;99.90;;;;;;5009301;28;20203;-67
2023/04/14 07:59:41;;;;;;;1.77;1.35;;;18.70;99.90;;;;;;5040292;28;20537;-72
2023/04/14 08:02:08;;;;;;;1.20;0.95;;;19.10;99.90;;;;;;5010901;28;20728;-68
2023/04/14 08:04:33;;;;;;;2.30;1.30;;;19.50;99.90;;;;;;5010895;28;20210;-67
2023/04/14 08:07:00;;;;;;;1.17;1.10;;;19.70;99.90;;;;;;5021095;28;20639;-66
2023/04/14 08:09:25;;;;;;;1.42;1.13;;;19.70;99.90;;;;;;5017884;28;20196;-67
2023/04/14 08:11:51;;;;;;;1.95;1.38;;;18.90;99.90;;;;;;5013622;28;20202;-66
2023/04/14 08:14:17;;;;;;;4.03;1.52;;;18.90;99.90;;;;;;5013382;28;20190;-66
2023/04/14 08:16:43;;;;;;;1.23;1.10;;;19.00;99.90;;;;;;5010752;28;20195;-67
2023/04/14 08:19:09;;;;;;;2.33;1.13;;;19.20;99.90;;;;;;5010409;28;20588;-67
2023/04/14 08:21:35;;;;;;;1.58;1.20;;;19.60;99.90;;;;;;5008520;28;20183;-67
2023/04/14 08:24:00;;;;;;;3.80;1.40;;;19.50;99.90;;;;;;5006470;28;20254;-67
2023/04/14 08:26:26;;;;;;;2.78;1.00;;;19.80;99.90;;;;;;5025275;28;20219;-68
2023/04/14 08:28:53;;;;;;;1.42;1.17;;;20.10;99.90;;;;;;5011971;28;20199;-67
2023/04/14 08:31:22;;;;;;;3.60;1.48;;;20.30;99.90;;;;;;5031727;28;20195;-68
2023/04/14 08:33:48;;;;;;;1.05;1.00;;;20.10;99.90;;;;;;5011247;28;20183;-66
2023/04/14 08:36:14;;;;;;;3.45;1.20;;;18.80;99.90;;;;;;5008010;28;20531;-68
2023/04/14 08:38:40;;;;;;;2.58;1.38;;;18.80;99.90;;;;;;5004979;28;20183;-67
2023/04/14 08:41:08;;;;;;;2.78;1.08;;;19.00;99.90;;;;;;5010215;28;20649;-65
2023/04/14 08:43:34;;;;;;;1.85;0.90;;;19.00;99.90;;;;;;5001051;28;20571;-67
2023/04/14 08:46:01;;;;;;;1.70;1.60;;;18.90;99.90;;;;;;5022848;28;20712;-71
2023/04/14 08:48:32;;;;;;;3.40;1.23;;;18.90;99.90;;;;;;5013238;28;20178;-69
2023/04/14 08:51:20;;;;;;;0.98;0.98;;;18.60;99.90;;;;;;5028312;28;20242;-67
2023/04/14 08:53:47;;;;;;;1.35;1.27;;;18.90;99.90;;;;;;5012670;28;20195;-67
2023/04/14 08:56:16;;;;;;;1.90;1.05;;;19.40;99.90;;;;;;5024398;28;20210;-67
2023/04/14 08:58:43;;;;;;;1.05;0.93;;;19.60;99.90;;;;;;5002490;28;20274;-67
2023/04/14 09:01:10;;;;;;;2.47;0.95;;;19.00;99.90;;;;;;5001677;28;20588;-67
2023/04/14 09:03:36;;;;;;;2.33;1.30;;;17.80;99.90;;;;;;5013099;28;20211;-67
2023/04/14 09:06:04;;;;;;;1.83;1.20;;;17.00;99.90;;;;;;5014775;28;20286;-67
2023/04/14 09:08:32;;;;;;;4.03;1.73;;;16.40;99.90;;;;;;5025729;28;20184;-66
2023/04/14 09:11:03;;;;;;;3.33;1.92;;;15.90;99.90;;;;;;5015091;28;20184;-71
2023/04/14 09:13:30;;;;;;;5.07;1.05;;;15.40;99.90;;;;;;5028647;28;20186;-66
2023/04/14 09:15:56;;;;;;;1.75;1.23;;;15.30;99.90;;;;;;5010974;28;20196;-66
2023/04/14 09:18:23;;;;;;;3.05;1.13;;;15.10;99.90;;;;;;5009980;28;20293;-67
2023/04/14 09:20:49;;;;;;;2.72;1.85;;;15.00;99.90;;;;;;5006612;28;20204;-67
2023/04/14 09:23:15;;;;;;;3.60;1.27;;;15.10;99.90;;;;;;5001754;28;20276;-67
2023/04/14 09:25:42;;;;;;;1.23;1.15;;;15.00;99.90;;;;;;5022457;28;20192;-67
2023/04/14 09:28:07;;;;;;;3.45;1.20;;;15.00;99.90;;;;;;5021249;28;20628;-67
2023/04/14 09:30:33;;;;;;;2.63;1.65;;;14.90;99.90;;;;;;5010408;28;20199;-68
2023/04/14 09:33:06;;;;;;;1.83;1.15;;;14.90;99.90;;;;;;5010143;28;20250;-68
2023/04/14 09:35:48;;;;;;;2.55;1.40;;;15.10;99.90;;;;;;5022662;28;20179;-67
2023/04/14 09:38:15;;;;;;;1.75;1.30;;;14.70;99.90;;;;;;5017111;28;20210;-68
2023/04/14 09:40:43;;;;;;;1.50;1.23;;;14.90;99.90;;;;;;5023134;28;20590;-67
2023/04/14 09:43:21;;;;;;;1.65;1.42;;;15.00;99.90;;;;;;5016112;28;20485;-71
2023/04/14 09:45:47;;;;;;;1.40;1.17;;;14.90;99.90;;;;;;5036285;28;20190;-79
2023/04/14 09:48:13;;;;;;;0.90;0.90;;;15.00;99.90;;;;;;5003813;28;20275;-71
2023/04/14 09:50:55;;;;;;;1.58;1.48;;;14.90;99.90;;;;;;5009238;28;20180;-70
2023/04/14 09:53:35;;;;;;;3.83;1.63;;;14.70;99.90;;;;;;5008164;28;20193;-70
2023/04/14 09:56:04;;;;;;;2.28;1.20;;;14.80;99.90;;;;;;5007764;28;20179;-70
2023/04/14 09:58:43;;;;;;;1.10;0.95;;;15.10;99.90;;;;;;5010124;28;20225;-69
2023/04/14 10:01:16;;;;;;;1.50;1.40;;;15.50;99.90;;;;;;5005462;28;21047;-70
2023/04/14 10:03:43;;;;;;;2.13;1.13;;;15.70;99.90;;;;;;4997882;28;20612;-70
2023/04/14 10:06:16;;;;;;;4.82;1.08;;;15.60;99.90;;;;;;5015188;28;20215;-76
2023/04/14 10:08:48;;;;;;;2.67;1.20;;;15.30;99.90;;;;;;5006000;28;20199;-70
2023/04/14 10:11:24;;;;;;;2.00;1.75;;;15.30;99.90;;;;;;5014952;28;20849;-71
2023/04/14 10:13:52;;;;;;;2.97;1.08;;;15.50;99.90;;;;;;4997823;28;20382;-69
2023/04/14 10:16:18;;;;;;;2.05;1.45;;;15.60;99.90;;;;;;5013099;28;20218;-70
2023/04/14 10:18:44;;;;;;;3.22;1.20;;;15.90;99.90;;;;;;5015507;28;20255;-76
2023/04/14 10:21:10;;;;;;;10.63;1.55;;;16.20;99.90;;;;;;5004086;28;20976;-68
2023/04/14 10:23:40;;;;;;;6.80;1.45;;;16.20;99.90;;;;;;5033368;28;20639;-74
2023/04/14 10:26:10;;;;;;;1.40;1.20;;;16.10;99.90;;;;;;5007887;28;20191;-73
2023/04/14 10:28:43;;;;;;;2.08;1.65;;;15.90;99.90;;;;;;5015856;28;20728;-68
2023/04/14 10:31:14;;;;;;;6.75;2.15;;;15.70;99.90;;;;;;5009042;28;20174;-70
2023/04/14 10:33:41;;;;;;;3.47;2.13;;;15.40;99.90;;;;;;5010202;28;20187;-69
2023/04/14 10:36:08;;;;;;;5.75;3.35;;;15.40;99.90;;;;;;5008208;28;20656;-69
2023/04/14 10:38:41;;;;;;;2.65;2.00;;;15.40;99.90;;;;;;5002666;28;20648;-71
2023/04/14 10:41:07;;;;;;;2.67;1.75;;;15.40;99.90;;;;;;5002806;28;20184;-68
2023/04/14 10:43:35;;;;;;;4.20;1.60;;;15.50;99.90;;;;;;5013118;28;20606;-71
2023/04/14 10:46:02;;;;;;;1.90;1.80;;;15.70;99.90;;;;;;5021794;28;20469;-70
2023/04/14 10:48:33;;;;;;;2.50;1.67;;;15.80;99.90;;;;;;5026970;28;20183;-69
2023/04/14 10:51:00;;;;;;;1.13;0.98;;;16.00;99.90;;;;;;5001655;28;20179;-70
2023/04/14 10:53:32;;;;;;;4.15;1.27;;;16.30;99.90;;;;;;5013865;28;20217;-70
2023/04/14 10:56:02;;;;;;;6.88;1.60;;;16.30;99.90;;;;;;5018727;28;20194;-69
2023/04/14 10:58:28;;;;;;;2.78;1.50;;;16.30;99.90;;;;;;5021690;28;20245;-75
2023/04/14 11:00:56;;;;;;;1.65;1.52;;;15.80;99.90;;;;;;5012663;28;20691;-70
2023/04/14 11:03:22;;;;;;;3.00;2.13;;;15.40;99.90;;;;;;4992890;28;20208;-68
2023/04/14 11:05:49;;;;;;;0.98;0.98;;;15.60;99.90;;;;;;5026425;28;20192;-72
2023/04/14 11:08:18;;;;;;;7.32;1.15;;;15.90;99.90;;;;;;5019297;28;20542;-68
2023/04/14 11:10:48;;;;;;;1.35;1.25;;;16.10;99.90;;;;;;5031359;28;20193;-69
2023/04/14 11:13:14;;;;;;;1.27;1.17;;;16.30;99.90;;;;;;5010080;28;20186;-71
2023/04/14 11:15:47;;;;;;;1.58;1.30;;;16.40;99.90;;;;;;5011002;28;20195;-69
2023/04/14 11:18:14;;;;;;;3.70;1.55;;;16.50;99.90;;;;;;5002839;28;20318;-67
2023/04/14 11:20:41;;;;;;;1.58;0.90;;;16.20;99.90;;;;;;5013027;28;20179;-72
2023/04/14 11:23:08;;;;;;;2.72;0.88;;;15.90;99.90;;;;;;5016867;28;20200;-69
2023/04/14 11:25:33;;;;;;;1.10;0.70;;;15.90;99.90;;;;;;5016085;28;20222;-69
2023/04/14 11:28:02;;;;;;;0.88;0.88;;;15.90;99.90;;;;;;5012916;28;20653;-70
2023/04/14 11:30:28;;;;;;;3.75;1.77;;;15.80;99.90;;;;;;5016327;28;20194;-68
2023/04/14 11:32:56;;;;;;;1.48;0.80;;;15.90;99.90;;;;;;5015759;28;20191;-68
2023/04/14 11:35:26;;;;;;;6.65;2.13;;;16.00;99.90;;;;;;5012563;28;20267;-76
2023/04/14 11:37:54;;;;;;;6.03;1.10;;;16.00;99.90;;;;;;5003183;28;20293;-72
2023/04/14 11:40:20;;;;;;;2.35;1.55;;;16.10;99.90;;;;;;5015257;28;20263;-72
2023/04/14 11:42:55;;;;;;;3.67;1.40;;;16.50;99.90;;;;;;5013001;28;20618;-72
2023/04/14 11:45:21;;;;;;;1.38;0.82;;;16.50;99.90;;;;;;5011506;28;20613;-71
2023/04/14 11:48:08;;;;;;;1.15;0.73;;;16.50;99.90;;;;;;5024764;28;20223;-73
2023/04/14 11:50:37;;;;;;;1.20;1.10;;;16.40;99.90;;;;;;5024857;28;20218;-73
2023/04/14 11:53:07;;;;;;;1.85;1.00;;;16.30;99.90;;;;;;5023656;28;20191;-77
2023/04/14 11:55:33;;;;;;;2.97;0.90;;;16.30;99.90;;;;;;5029132;28;20526;-70
2023/04/14 11:57:59;;;;;;;1.80;0.95;;;16.20;99.90;;;;;;5008645;28;20746;-74
2023/04/14 12:00:26;;;;;;;0.60;0.60;;;16.10;99.90;;;;;;5019674;28;20273;-70
2023/04/14 12:02:52;;;;;;;1.00;0.80;;;16.20;99.90;;;;;;5020606;28;20210;-76
2023/04/14 12:05:20;;;;;;;2.65;0.70;;;16.20;99.90;;;;;;5019768;28;20191;-75
2023/04/14 12:07:48;;;;;;;1.20;1.05;;;16.20;99.90;;;;;;5015408;28;20259;-75
2023/04/14 12:10:14;;;;;;;1.13;0.70;;;16.10;99.90;;;;;;5032501;28;20643;-75
2023/04/14 12:12:40;;;;;;;2.45;0.90;;;16.10;99.90;;;;;;5020021;28;20199;-75
2023/04/14 12:15:06;;;;;;;1.65;0.80;;;16.00;99.90;;;;;;4980337;28;20258;-75
2023/04/14 12:17:32;;;;;;;0.60;0.60;;;16.10;99.90;;;;;;5015324;28;20318;-75
2023/04/14 12:19:58;;;;;;;1.60;1.50;;;16.20;99.90;;;;;;5034165;28;20237;-75
2023/04/14 12:22:27;;;;;;;0.90;0.85;;;16.30;99.90;;;;;;5020960;28;20210;-75
2023/04/14 12:24:55;;;;;;;1.45;0.77;;;16.40;99.90;;;;;;5002760;28;20235;-74
2023/04/14 12:27:25;;;;;;;1.08;0.80;;;16.50;99.90;;;;;;5027153;28;20756;-75
2023/04/14 12:29:51;;;;;;;1.30;1.13;;;16.50;99.90;;;;;;5023677;28;20509;-77
2023/04/14 12:32:17;;;;;;;1.15;0.70;;;16.70;99.90;;;;;;5020986;28;20193;-76
2023/04/14 12:34:56;;;;;;;2.35;0.82;;;16.70;99.90;;;;;;5023725;28;20533;-76
2023/04/14 12:37:26;;;;;;;0.40;0.40;;;16.50;99.90;;;;;;5011317;28;20518;-77
2023/04/14 12:39:57;;;;;;;0.98;0.70;;;16.40;99.90;;;;;;5013568;28;20189;-76
2023/04/14 12:42:47;;;;;;;1.95;0.65;;;16.40;99.90;;;;;;5009059;28;20202;-76
2023/04/14 12:45:14;;;;;;;1.42;0.85;;;16.40;99.90;;;;;;5022241;28;20266;-76
2023/04/14 12:47:49;;;;;;;0.82;0.70;;;16.50;99.90;;;;;;5044141;28;20182;-75
2023/04/14 12:50:23;;;;;;;3.65;1.48;;;16.60;99.90;;;;;;5018840;28;20643;-76
2023/04/14 12:52:49;;;;;;;2.75;1.05;;;16.40;99.90;;;;;;5021693;28;20179;-76
2023/04/14 12:55:20;;;;;;;2.33;0.95;;;16.30;99.90;;;;;;5022123;28;20190;-75
2023/04/14 12:57:45;;;;;;;2.55;1.00;;;16.10;99.90;;;;;;5027990;28;20714;-77